Olds, Canada
Current Conditions -  °F | °C
As of 9:00 AM on Saturday 25 Oct 2014 (Local Time) from CYQF Reporting Station
Overcast Overcast  
Wind Chill: 27°   Ceiling: 11000
Heat Index: 27°   Visibility: 15mi
Dew Point: 23°   Wind: 2mph
Humidity: 86%   Direction: 10°N
Pressure: 29.95"   Gusts: NA
Location:  51.78°N, 114.1°W
Report Text: CYQF 251500Z 01002KT 15SM OVC110 M03/M05 A2995 RMK AC8 PRESFR SLP183
Loading
Personal Weather Stations






























Interactive Weather Map
Tropical Storm Tracking
New forecast layout! Learn more

10-Day Weather Forecast

Advertisements
Track Severe Weather on mobile